Time;durP1;ratioP1;P1;durP2;ratioP2;P2;SDS_P1;SDS_P2;PMS_P1;PMS_P2;Temp;Humidity;BMP_temperature;BMP_pressure;BME280_temperature;BME280_humidity;BME280_pressure;Samples;Min_cycle;Max_cycle;Signal;HPM_P1;HPM_P2
2023/01/24 00:00:31;;;;;;;28.30;17.17;;;;;;;;;;5050483;28;20466;-61
2023/01/24 00:02:57;;;;;;;30.67;18.33;;;;;;;;;;5051218;28;20085;-61
2023/01/24 00:05:23;;;;;;;31.40;18.30;;;;;;;;;;5050851;28;20148;-61
2023/01/24 00:07:49;;;;;;;28.47;18.13;;;;;;;;;;5051301;28;20617;-62
2023/01/24 00:10:15;;;;;;;29.13;17.87;;;;;;;;;;5051269;28;20045;-61
2023/01/24 00:12:41;;;;;;;31.13;17.57;;;;;;;;;;5053926;28;20040;-61
2023/01/24 00:15:08;;;;;;;30.57;18.57;;;;;;;;;;5062177;28;20040;-61
2023/01/24 00:17:34;;;;;;;32.73;17.97;;;;;;;;;;5050749;28;20077;-61
2023/01/24 00:20:00;;;;;;;30.70;18.53;;;;;;;;;;5050658;28;20072;-61
2023/01/24 00:22:26;;;;;;;31.10;18.87;;;;;;;;;;5049739;28;20045;-61
2023/01/24 00:24:51;;;;;;;29.07;17.87;;;;;;;;;;5050364;28;20487;-61
2023/01/24 00:27:18;;;;;;;31.23;17.47;;;;;;;;;;5050372;28;20087;-61
2023/01/24 00:29:44;;;;;;;28.80;17.07;;;;;;;;;;5050238;28;20534;-61
2023/01/24 00:32:10;;;;;;;33.53;19.03;;;;;;;;;;5068407;28;20498;-61
2023/01/24 00:34:36;;;;;;;31.90;19.10;;;;;;;;;;5069628;28;20598;-61
2023/01/24 00:37:02;;;;;;;29.33;17.53;;;;;;;;;;5069100;28;20502;-61
2023/01/24 00:39:28;;;;;;;32.80;18.57;;;;;;;;;;5070332;28;20052;-61
2023/01/24 00:41:54;;;;;;;31.97;18.53;;;;;;;;;;5070316;28;20037;-61
2023/01/24 00:44:20;;;;;;;30.93;18.73;;;;;;;;;;5070019;28;20067;-61
2023/01/24 00:46:46;;;;;;;31.90;18.37;;;;;;;;;;5070187;28;20491;-61
2023/01/24 00:49:12;;;;;;;31.57;19.80;;;;;;;;;;5069405;28;20057;-61
2023/01/24 00:51:38;;;;;;;29.37;17.67;;;;;;;;;;5070148;28;20137;-61
2023/01/24 00:54:04;;;;;;;34.30;18.77;;;;;;;;;;5070029;28;20563;-61
2023/01/24 00:56:30;;;;;;;31.30;18.87;;;;;;;;;;5070076;28;20844;-61
2023/01/24 00:58:56;;;;;;;30.07;19.07;;;;;;;;;;5068692;28;20045;-61
2023/01/24 01:01:22;;;;;;;30.63;18.40;;;;;;;;;;5069022;28;20041;-61
2023/01/24 01:03:48;;;;;;;32.53;18.70;;;;;;;;;;5069689;28;20044;-61
2023/01/24 01:06:16;;;;;;;32.50;19.43;;;;;;;;;;5069730;28;20056;-61
2023/01/24 01:08:42;;;;;;;31.07;17.57;;;;;;;;;;5069933;28;20052;-61
2023/01/24 01:11:08;;;;;;;33.30;18.50;;;;;;;;;;5069461;28;20047;-61
2023/01/24 01:13:34;;;;;;;31.77;18.33;;;;;;;;;;5068417;28;20036;-61
2023/01/24 01:16:01;;;;;;;31.53;18.27;;;;;;;;;;5050170;28;20047;-61
2023/01/24 01:18:27;;;;;;;29.80;17.93;;;;;;;;;;5049820;28;20128;-61
2023/01/24 01:20:53;;;;;;;31.47;17.63;;;;;;;;;;5048871;28;20049;-61
2023/01/24 01:23:19;;;;;;;33.33;18.27;;;;;;;;;;5049546;28;20044;-61
2023/01/24 01:25:45;;;;;;;29.47;17.77;;;;;;;;;;5065453;28;20087;-61
2023/01/24 01:28:11;;;;;;;31.77;17.93;;;;;;;;;;5069365;28;20049;-61
2023/01/24 01:30:37;;;;;;;29.03;17.70;;;;;;;;;;5069355;28;20044;-61
2023/01/24 01:33:03;;;;;;;26.60;17.27;;;;;;;;;;5068996;28;20056;-61
2023/01/24 01:35:29;;;;;;;30.20;17.67;;;;;;;;;;5068484;28;20121;-61
2023/01/24 01:37:55;;;;;;;28.07;16.57;;;;;;;;;;5069143;28;20405;-61
2023/01/24 01:40:21;;;;;;;23.67;14.07;;;;;;;;;;5069142;28;20041;-61
2023/01/24 01:42:47;;;;;;;23.30;14.50;;;;;;;;;;5068017;28;20148;-61
2023/01/24 01:45:32;;;;;;;21.30;13.43;;;;;;;;;;5067062;28;20449;-61
2023/01/24 01:47:59;;;;;;;26.67;14.83;;;;;;;;;;5068379;28;20064;-61
2023/01/24 01:50:28;;;;;;;26.43;15.77;;;;;;;;;;5069147;28;20071;-61
2023/01/24 01:52:55;;;;;;;25.60;15.37;;;;;;;;;;5068975;28;20060;-62
2023/01/24 01:55:24;;;;;;;25.53;15.73;;;;;;;;;;5068920;28;20047;-60
2023/01/24 01:57:51;;;;;;;26.37;15.83;;;;;;;;;;5068535;28;20045;-61
2023/01/24 02:00:19;;;;;;;27.87;15.77;;;;;;;;;;5069201;28;20048;-61
2023/01/24 02:02:48;;;;;;;27.30;15.57;;;;;;;;;;5068990;28;20445;-62
2023/01/24 02:05:14;;;;;;;28.00;16.83;;;;;;;;;;5069250;28;20045;-61
2023/01/24 02:07:58;;;;;;;28.90;17.07;;;;;;;;;;5068368;28;20047;-62
2023/01/24 02:10:24;;;;;;;23.13;14.18;;;;;;;;;;5068976;28;20044;-61
2023/01/24 02:12:53;;;;;;;26.37;15.37;;;;;;;;;;5063901;28;20041;-61
2023/01/24 02:18:09;;;;;;;23.27;13.60;;;;;;;;;;5048608;28;20053;-61
2023/01/24 02:20:53;;;;;;;25.33;16.00;;;;;;;;;;5048910;28;20045;-61
2023/01/24 02:23:19;;;;;;;;;;;;;;;;;;5049308;28;20052;-61
2023/01/24 02:26:04;;;;;;;24.13;13.87;;;;;;;;;;5048616;28;19920;-62
2023/01/24 02:28:30;;;;;;;23.43;14.70;;;;;;;;;;5046999;28;20087;-61
2023/01/24 02:30:59;;;;;;;23.03;14.00;;;;;;;;;;5048450;28;20119;-61
2023/01/24 02:33:26;;;;;;;23.67;14.37;;;;;;;;;;5048483;28;20159;-61
2023/01/24 02:36:06;;;;;;;25.27;14.27;;;;;;;;;;5048280;28;20037;-62
2023/01/24 02:38:33;;;;;;;22.57;13.03;;;;;;;;;;5048356;28;20045;-61
2023/01/24 02:41:07;;;;;;;23.87;14.50;;;;;;;;;;5048283;28;20041;-61
2023/01/24 02:43:35;;;;;;;19.63;12.93;;;;;;;;;;5048069;28;20044;-61
2023/01/24 02:46:01;;;;;;;21.97;14.17;;;;;;;;;;5047771;28;20052;-61
2023/01/24 02:48:27;;;;;;;23.60;14.90;;;;;;;;;;5048301;28;20057;-61
2023/01/24 02:53:39;;;;;;;22.23;13.90;;;;;;;;;;5048184;28;20041;-61
2023/01/24 02:58:51;;;;;;;20.90;13.73;;;;;;;;;;5047897;28;20048;-61
2023/01/24 03:01:18;;;;;;;20.87;13.33;;;;;;;;;;5048272;28;20469;-62
2023/01/24 03:03:44;;;;;;;24.13;15.40;;;;;;;;;;5046783;28;20419;-61
2023/01/24 03:06:11;;;;;;;23.97;15.30;;;;;;;;;;5046679;28;20503;-61
2023/01/24 03:08:37;;;;;;;21.37;13.37;;;;;;;;;;5055464;28;20044;-61
2023/01/24 03:11:04;;;;;;;22.93;14.23;;;;;;;;;;5066419;28;20098;-61
2023/01/24 03:35:29;;;;;;;22.73;13.53;;;;;;;;;;5051443;28;20491;-61
2023/01/24 03:40:40;;;;;;;23.83;13.93;;;;;;;;;;5052520;28;20053;-61
2023/01/24 03:43:06;;;;;;;22.30;14.10;;;;;;;;;;5071392;28;20482;-61
2023/01/24 03:45:33;;;;;;;24.83;14.87;;;;;;;;;;5071447;28;20131;-61
2023/01/24 03:48:01;;;;;;;23.43;14.77;;;;;;;;;;5064847;28;20549;-61
2023/01/24 03:53:13;;;;;;;21.33;13.57;;;;;;;;;;5071106;28;20479;-61
2023/01/24 03:55:39;;;;;;;25.37;15.07;;;;;;;;;;5071352;28;20090;-61
2023/01/24 03:58:06;;;;;;;23.33;15.00;;;;;;;;;;5069847;28;20632;-61
2023/01/24 04:00:32;;;;;;;22.20;14.20;;;;;;;;;;5070217;28;20417;-61
2023/01/24 04:02:58;;;;;;;20.43;13.20;;;;;;;;;;5070059;28;20139;-61
2023/01/24 04:05:24;;;;;;;24.37;12.67;;;;;;;;;;5071050;28;20426;-61
2023/01/24 04:07:50;;;;;;;24.60;12.27;;;;;;;;;;5071504;28;20383;-61
2023/01/24 04:10:17;;;;;;;18.90;10.90;;;;;;;;;;5069488;28;20050;-61
2023/01/24 04:12:43;;;;;;;19.13;12.30;;;;;;;;;;5051210;28;20715;-61
2023/01/24 04:15:13;;;;;;;18.83;11.80;;;;;;;;;;5050631;28;20069;-61
2023/01/24 04:17:39;;;;;;;18.80;11.20;;;;;;;;;;5050324;28;20049;-61
2023/01/24 04:20:06;;;;;;;18.73;11.53;;;;;;;;;;5050384;28;20044;-61
2023/01/24 04:22:32;;;;;;;17.67;12.17;;;;;;;;;;5050681;28;20041;-61
2023/01/24 04:24:58;;;;;;;19.37;11.70;;;;;;;;;;5065253;28;20502;-61
2023/01/24 04:27:24;;;;;;;20.97;12.03;;;;;;;;;;5070816;28;20040;-61
2023/01/24 04:29:50;;;;;;;20.40;11.30;;;;;;;;;;5070538;28;20072;-61
2023/01/24 04:32:16;;;;;;;19.57;11.77;;;;;;;;;;5069932;28;20658;-61
2023/01/24 04:34:42;;;;;;;18.90;12.80;;;;;;;;;;5069612;28;20044;-61
2023/01/24 04:37:08;;;;;;;18.40;11.70;;;;;;;;;;5070289;28;20048;-61
2023/01/24 04:39:34;;;;;;;18.70;11.93;;;;;;;;;;5070417;28;20102;-61
2023/01/24 04:42:00;;;;;;;19.90;11.57;;;;;;;;;;5069397;28;20094;-61
2023/01/24 04:44:26;;;;;;;17.53;10.13;;;;;;;;;;5070293;28;20037;-61
2023/01/24 04:46:52;;;;;;;20.07;11.10;;;;;;;;;;5069847;28;20045;-61
2023/01/24 04:49:18;;;;;;;20.03;11.37;;;;;;;;;;5069587;28;20426;-61
2023/01/24 04:51:46;;;;;;;15.63;10.23;;;;;;;;;;5070036;28;20444;-61
2023/01/24 04:54:13;;;;;;;19.90;11.50;;;;;;;;;;5070289;28;20040;-61
2023/01/24 04:56:39;;;;;;;18.33;10.17;;;;;;;;;;5049383;28;20045;-61
2023/01/24 04:59:06;;;;;;;16.73;10.53;;;;;;;;;;5049573;28;20052;-61
2023/01/24 05:01:32;;;;;;;13.23;8.67;;;;;;;;;;5048377;28;20048;-61
2023/01/24 05:03:59;;;;;;;15.87;10.27;;;;;;;;;;5049690;28;20048;-61
2023/01/24 05:06:25;;;;;;;17.17;9.77;;;;;;;;;;5050286;28;20041;-61
2023/01/24 05:08:52;;;;;;;18.93;10.03;;;;;;;;;;5050071;28;20102;-61
2023/01/24 05:11:18;;;;;;;17.43;9.77;;;;;;;;;;5060992;28;20488;-61
2023/01/24 05:13:44;;;;;;;16.80;9.77;;;;;;;;;;5070003;28;20048;-61
2023/01/24 05:16:10;;;;;;;16.27;9.40;;;;;;;;;;5069653;28;20105;-61
2023/01/24 05:18:36;;;;;;;16.13;9.53;;;;;;;;;;5069656;28;20498;-61
2023/01/24 05:21:05;;;;;;;16.10;9.17;;;;;;;;;;5069700;28;20801;-61
2023/01/24 05:23:31;;;;;;;13.50;9.20;;;;;;;;;;5069546;28;20051;-61
2023/01/24 05:26:00;;;;;;;16.30;10.40;;;;;;;;;;5067647;28;20037;-61
2023/01/24 05:28:27;;;;;;;16.13;9.77;;;;;;;;;;5069321;28;20037;-61
2023/01/24 05:30:53;;;;;;;14.07;8.90;;;;;;;;;;5069147;28;20055;-62
2023/01/24 05:33:19;;;;;;;16.73;10.20;;;;;;;;;;5069812;28;20040;-61
2023/01/24 05:35:45;;;;;;;15.07;9.70;;;;;;;;;;5068710;28;20040;-61
2023/01/24 05:38:11;;;;;;;13.53;8.87;;;;;;;;;;5069103;28;20735;-61
2023/01/24 05:40:37;;;;;;;18.23;10.97;;;;;;;;;;5061048;28;20037;-61
2023/01/24 05:43:03;;;;;;;16.87;9.57;;;;;;;;;;5048506;28;20130;-61
2023/01/24 05:45:29;;;;;;;15.57;10.57;;;;;;;;;;5048783;28;20407;-61
2023/01/24 05:47:56;;;;;;;15.83;9.80;;;;;;;;;;5048120;28;20103;-61
2023/01/24 05:50:22;;;;;;;16.63;9.80;;;;;;;;;;5048914;28;20474;-61
2023/01/24 05:52:48;;;;;;;16.70;10.27;;;;;;;;;;5047232;28;20056;-60
2023/01/24 05:55:14;;;;;;;17.80;9.50;;;;;;;;;;5046577;28;20419;-61
2023/01/24 05:57:40;;;;;;;15.47;9.13;;;;;;;;;;5046704;28;20518;-61
2023/01/24 06:00:06;;;;;;;15.30;9.60;;;;;;;;;;5044297;28;20053;-61
2023/01/24 06:02:32;;;;;;;16.53;10.43;;;;;;;;;;5046809;28;20553;-61
2023/01/24 06:04:58;;;;;;;14.57;9.47;;;;;;;;;;5046526;28;20049;-61
2023/01/24 06:07:24;;;;;;;13.80;8.83;;;;;;;;;;5047540;28;20048;-61
2023/01/24 06:09:50;;;;;;;12.30;8.70;;;;;;;;;;5048372;28;20107;-61
2023/01/24 06:12:16;;;;;;;16.40;9.67;;;;;;;;;;5047672;28;20533;-61
2023/01/24 06:14:42;;;;;;;16.03;9.23;;;;;;;;;;5048150;28;20048;-61
2023/01/24 06:17:09;;;;;;;15.43;9.63;;;;;;;;;;5048362;28;20060;-61
2023/01/24 06:19:35;;;;;;;15.17;9.63;;;;;;;;;;5048318;28;20522;-61
2023/01/24 06:22:07;;;;;;;16.03;10.30;;;;;;;;;;5047985;28;20059;-61
2023/01/24 06:24:33;;;;;;;16.40;10.37;;;;;;;;;;5048308;28;20044;-61
2023/01/24 06:26:59;;;;;;;15.37;9.93;;;;;;;;;;5048570;28;20128;-61
2023/01/24 06:29:25;;;;;;;16.27;9.90;;;;;;;;;;5055290;28;20051;-61
2023/01/24 06:32:03;;;;;;;14.87;10.03;;;;;;;;;;5051618;28;20057;-61
2023/01/24 06:34:41;;;;;;;14.77;9.70;;;;;;;;;;5048589;28;20123;-61
2023/01/24 06:37:18;;;;;;;16.30;9.93;;;;;;;;;;5047839;28;20072;-61
2023/01/24 06:39:49;;;;;;;15.33;10.00;;;;;;;;;;5047844;28;20041;-61
2023/01/24 06:42:16;;;;;;;15.30;9.37;;;;;;;;;;5048005;28;20045;-61
2023/01/24 06:44:42;;;;;;;16.57;10.33;;;;;;;;;;5047462;28;20041;-61
2023/01/24 06:47:10;;;;;;;16.13;9.40;;;;;;;;;;5052247;28;20052;-61
2023/01/24 06:49:36;;;;;;;15.47;9.53;;;;;;;;;;5057065;28;20060;-61
2023/01/24 06:52:02;;;;;;;15.90;10.20;;;;;;;;;;5065407;28;20506;-61
2023/01/24 06:54:28;;;;;;;15.47;9.57;;;;;;;;;;5063585;28;20044;-61
2023/01/24 06:56:54;;;;;;;15.23;10.47;;;;;;;;;;5066909;28;20415;-61
2023/01/24 06:59:22;;;;;;;16.50;10.47;;;;;;;;;;5070966;28;20497;-61
2023/01/24 07:01:49;;;;;;;17.10;11.00;;;;;;;;;;5072040;28;20401;-61
2023/01/24 07:04:15;;;;;;;18.00;11.40;;;;;;;;;;5071718;28;20052;-61
2023/01/24 07:06:41;;;;;;;16.57;10.80;;;;;;;;;;5067347;28;20099;-60
2023/01/24 07:09:07;;;;;;;18.27;11.77;;;;;;;;;;5051900;28;20045;-61
2023/01/24 07:11:33;;;;;;;18.00;11.60;;;;;;;;;;5051287;28;20099;-61
2023/01/24 07:14:00;;;;;;;16.83;10.97;;;;;;;;;;5052201;28;20084;-61
2023/01/24 07:16:26;;;;;;;18.90;10.40;;;;;;;;;;5051724;28;20418;-61
2023/01/24 07:18:52;;;;;;;16.77;9.70;;;;;;;;;;5053351;28;20048;-61
2023/01/24 07:21:18;;;;;;;17.27;11.17;;;;;;;;;;5064162;28;20045;-61
2023/01/24 07:23:45;;;;;;;17.83;11.43;;;;;;;;;;5066877;28;20044;-61
2023/01/24 07:26:12;;;;;;;19.07;11.60;;;;;;;;;;5069299;28;20051;-61
2023/01/24 07:28:38;;;;;;;19.77;10.57;;;;;;;;;;5066199;28;20568;-61
2023/01/24 07:31:04;;;;;;;18.73;12.40;;;;;;;;;;5061743;28;20045;-61
2023/01/24 07:33:30;;;;;;;17.20;10.77;;;;;;;;;;5061991;28;20059;-61
2023/01/24 07:35:56;;;;;;;18.30;11.47;;;;;;;;;;5064676;28;20048;-62
2023/01/24 07:38:22;;;;;;;18.70;11.50;;;;;;;;;;5060201;28;20048;-61
2023/01/24 07:40:48;;;;;;;19.43;11.77;;;;;;;;;;5068966;28;20566;-61
2023/01/24 07:43:15;;;;;;;17.60;11.13;;;;;;;;;;5069703;28;20051;-62
2023/01/24 07:45:41;;;;;;;23.40;11.40;;;;;;;;;;5068851;28;20356;-62
2023/01/24 07:48:07;;;;;;;19.27;11.57;;;;;;;;;;5051783;28;20641;-61
2023/01/24 07:50:33;;;;;;;20.27;10.90;;;;;;;;;;5069960;28;20045;-61
2023/01/24 07:53:00;;;;;;;19.27;11.90;;;;;;;;;;5062667;28;20041;-61
2023/01/24 07:55:27;;;;;;;18.07;12.03;;;;;;;;;;5060296;28;20044;-61
2023/01/24 07:57:58;;;;;;;18.33;11.83;;;;;;;;;;5058771;28;20102;-61
2023/01/24 08:00:24;;;;;;;14.93;10.43;;;;;;;;;;5063590;28;20343;-61
2023/01/24 08:02:52;;;;;;;14.90;10.40;;;;;;;;;;5066678;28;20044;-61
2023/01/24 08:05:18;;;;;;;16.83;10.17;;;;;;;;;;5061830;28;20040;-61
2023/01/24 08:07:44;;;;;;;17.43;10.40;;;;;;;;;;5070051;28;20040;-61
2023/01/24 08:10:11;;;;;;;17.47;10.70;;;;;;;;;;5058559;28;20045;-61
2023/01/24 08:12:37;;;;;;;15.33;10.20;;;;;;;;;;5070219;28;20051;-61
2023/01/24 08:15:03;;;;;;;17.23;12.13;;;;;;;;;;5069446;28;20057;-61
2023/01/24 08:17:29;;;;;;;16.97;11.70;;;;;;;;;;5069930;28;21923;-61
2023/01/24 08:19:55;;;;;;;15.90;10.27;;;;;;;;;;5067592;28;20094;-62
2023/01/24 08:22:21;;;;;;;17.30;10.47;;;;;;;;;;5069098;28;20044;-62
2023/01/24 08:24:47;;;;;;;16.70;10.93;;;;;;;;;;5068493;28;20491;-61
2023/01/24 08:27:13;;;;;;;16.07;10.27;;;;;;;;;;5069613;28;20083;-61
2023/01/24 08:29:39;;;;;;;16.10;10.37;;;;;;;;;;5066702;28;20068;-62
2023/01/24 08:32:05;;;;;;;15.70;10.30;;;;;;;;;;5052843;28;20565;-61
2023/01/24 08:34:31;;;;;;;17.17;11.53;;;;;;;;;;5050630;28;20076;-61
2023/01/24 08:36:57;;;;;;;16.97;11.00;;;;;;;;;;5049185;28;20130;-61
2023/01/24 08:39:23;;;;;;;20.70;11.90;;;;;;;;;;5049754;28;20124;-61
2023/01/24 08:41:49;;;;;;;16.10;11.17;;;;;;;;;;5049155;28;20520;-61
2023/01/24 08:44:16;;;;;;;18.20;11.57;;;;;;;;;;5048666;28;20055;-61
2023/01/24 08:46:42;;;;;;;16.20;11.03;;;;;;;;;;5051384;28;20518;-61
2023/01/24 08:49:11;;;;;;;15.80;10.80;;;;;;;;;;5049721;28;20061;-63
2023/01/24 08:51:37;;;;;;;16.20;11.67;;;;;;;;;;5049471;28;20048;-60
2023/01/24 08:54:07;;;;;;;17.87;11.33;;;;;;;;;;5049512;28;20051;-60
2023/01/24 08:56:34;;;;;;;18.87;11.03;;;;;;;;;;5049725;28;20059;-61
2023/01/24 08:59:00;;;;;;;15.60;11.00;;;;;;;;;;5047823;28;20098;-60
2023/01/24 09:01:26;;;;;;;16.40;11.33;;;;;;;;;;5049453;28;20473;-61
2023/01/24 09:03:55;;;;;;;19.03;11.87;;;;;;;;;;5049119;28;20079;-61
2023/01/24 09:06:22;;;;;;;16.37;11.30;;;;;;;;;;5049183;28;20045;-61
2023/01/24 09:08:48;;;;;;;18.17;11.87;;;;;;;;;;5048784;28;20041;-61
2023/01/24 09:11:14;;;;;;;17.33;11.57;;;;;;;;;;5049267;28;20095;-61
2023/01/24 09:13:40;;;;;;;17.60;11.93;;;;;;;;;;5048979;28;20048;-60
2023/01/24 09:16:06;;;;;;;15.47;11.00;;;;;;;;;;5048903;28;20095;-61
2023/01/24 09:18:32;;;;;;;17.30;11.77;;;;;;;;;;5047301;28;20514;-61
2023/01/24 09:21:02;;;;;;;16.80;12.10;;;;;;;;;;5048224;28;20041;-61
2023/01/24 09:23:28;;;;;;;19.77;12.93;;;;;;;;;;5049054;28;20049;-61
2023/01/24 09:25:54;;;;;;;17.43;12.10;;;;;;;;;;5047365;28;20381;-61
2023/01/24 09:28:21;;;;;;;18.70;11.00;;;;;;;;;;5047548;28;20079;-60
2023/01/24 09:30:50;;;;;;;20.40;12.50;;;;;;;;;;5048594;28;20041;-61
2023/01/24 09:33:17;;;;;;;19.93;13.13;;;;;;;;;;5048585;28;20037;-60
2023/01/24 09:35:51;;;;;;;17.70;12.30;;;;;;;;;;5048582;28;20438;-60
2023/01/24 09:38:17;;;;;;;16.93;11.83;;;;;;;;;;5048194;28;20049;-61
2023/01/24 09:40:45;;;;;;;18.67;13.10;;;;;;;;;;5048734;28;20040;-61
2023/01/24 09:43:11;;;;;;;20.67;12.27;;;;;;;;;;5030883;28;20053;-61
2023/01/24 09:45:40;;;;;;;23.23;13.23;;;;;;;;;;5048319;28;20051;-61
2023/01/24 09:48:11;;;;;;;19.33;13.10;;;;;;;;;;5047672;28;20106;-61
2023/01/24 09:50:54;;;;;;;17.07;11.70;;;;;;;;;;5048338;28;20053;-61
2023/01/24 09:53:41;;;;;;;16.80;12.17;;;;;;;;;;5048444;28;20053;-61
2023/01/24 09:56:11;;;;;;;17.30;11.67;;;;;;;;;;5048006;28;20045;-61
2023/01/24 09:58:43;;;;;;;16.93;11.93;;;;;;;;;;5047896;28;20088;-61
2023/01/24 10:01:14;;;;;;;19.13;12.53;;;;;;;;;;5046477;28;20058;-61
2023/01/24 10:03:40;;;;;;;16.13;11.53;;;;;;;;;;5048141;28;20098;-61
2023/01/24 10:06:23;;;;;;;15.50;10.97;;;;;;;;;;5046815;28;20049;-61
2023/01/24 10:08:49;;;;;;;16.92;10.82;;;;;;;;;;5047608;28;20052;-61
2023/01/24 10:11:45;;;;;;;16.53;11.70;;;;;;;;;;5048387;28;20056;-61
2023/01/24 10:14:12;;;;;;;19.17;12.00;;;;;;;;;;5047860;28;20068;-60
2023/01/24 10:16:54;;;;;;;20.10;12.20;;;;;;;;;;5046850;28;20045;-61
2023/01/24 10:19:29;;;;;;;18.40;12.73;;;;;;;;;;5047966;28;20131;-60
2023/01/24 10:22:14;;;;;;;16.57;12.00;;;;;;;;;;5047227;28;20630;-60
2023/01/24 10:24:41;;;;;;;16.77;11.90;;;;;;;;;;5048003;28;20049;-61
2023/01/24 10:27:17;;;;;;;16.00;11.03;;;;;;;;;;5047643;28;20602;-61
2023/01/24 10:29:44;;;;;;;16.57;12.00;;;;;;;;;;5046856;28;20053;-61
2023/01/24 10:32:20;;;;;;;17.50;10.83;;;;;;;;;;5046691;28;20474;-61
2023/01/24 10:34:54;;;;;;;16.90;11.03;;;;;;;;;;5047464;28;20048;-61
2023/01/24 10:37:20;;;;;;;16.30;10.88;;;;;;;;;;5046699;28;20103;-61
2023/01/24 10:39:46;;;;;;;15.10;11.13;;;;;;;;;;5047852;28;20435;-60
2023/01/24 10:42:19;;;;;;;15.53;10.90;;;;;;;;;;5047473;28;20099;-61
2023/01/24 10:44:45;;;;;;;;;;;;;;;;;;5048267;28;20048;-61
2023/01/24 10:47:14;;;;;;;17.33;12.70;;;;;;;;;;5047386;28;19932;-61
2023/01/24 10:49:42;;;;;;;16.33;11.47;;;;;;;;;;5047774;28;20045;-61
2023/01/24 10:52:18;;;;;;;17.67;12.13;;;;;;;;;;5046931;28;20092;-61
2023/01/24 10:54:55;;;;;;;15.27;10.93;;;;;;;;;;5050849;28;20136;-61
2023/01/24 10:57:39;;;;;;;16.47;11.57;;;;;;;;;;5053836;28;20084;-61
2023/01/24 11:00:26;;;;;;;16.63;11.77;;;;;;;;;;5051401;28;20045;-60
2023/01/24 11:02:54;;;;;;;17.90;11.93;;;;;;;;;;5049921;28;20045;-60
2023/01/24 11:05:21;;;;;;;15.73;10.43;;;;;;;;;;5063909;28;20083;-61
2023/01/24 11:07:48;;;;;;;15.47;10.83;;;;;;;;;;5066532;28;20056;-61
2023/01/24 11:10:15;;;;;;;16.47;11.23;;;;;;;;;;5067459;28;20051;-61
2023/01/24 11:12:49;;;;;;;16.90;12.20;;;;;;;;;;5066395;28;20537;-61
2023/01/24 11:15:18;;;;;;;15.45;10.77;;;;;;;;;;5066686;28;20101;-61
2023/01/24 11:17:44;;;;;;;15.93;10.93;;;;;;;;;;5065832;28;20040;-60
2023/01/24 11:20:22;;;;;;;16.63;11.17;;;;;;;;;;5056646;28;20049;-60
2023/01/24 11:22:51;;;;;;;15.00;10.47;;;;;;;;;;5055640;28;20438;-61
2023/01/24 11:25:18;;;;;;;14.80;10.50;;;;;;;;;;5064689;28;20051;-61
2023/01/24 11:27:50;;;;;;;13.00;9.63;;;;;;;;;;5065696;28;20204;-61
2023/01/24 11:30:20;;;;;;;14.07;10.37;;;;;;;;;;5062100;28;20498;-61
2023/01/24 11:32:52;;;;;;;15.60;10.00;;;;;;;;;;5055563;28;20037;-60
2023/01/24 11:35:21;;;;;;;13.10;10.17;;;;;;;;;;5067257;28;20053;-61
2023/01/24 11:38:06;;;;;;;17.73;11.47;;;;;;;;;;5050876;28;20043;-61
2023/01/24 11:40:43;;;;;;;13.97;9.97;;;;;;;;;;5047486;28;20041;-61
2023/01/24 11:43:24;;;;;;;15.63;9.90;;;;;;;;;;5046873;28;20512;-61
2023/01/24 11:46:01;;;;;;;15.27;10.27;;;;;;;;;;5049195;28;20037;-61
2023/01/24 11:48:33;;;;;;;14.53;9.57;;;;;;;;;;5050542;28;20049;-61
2023/01/24 11:51:10;;;;;;;13.73;9.77;;;;;;;;;;5049861;28;20462;-61
2023/01/24 11:53:36;;;;;;;14.83;10.63;;;;;;;;;;5050601;28;20621;-61
2023/01/24 11:56:20;;;;;;;12.57;8.97;;;;;;;;;;5050480;28;20469;-61
2023/01/24 11:58:46;;;;;;;13.53;10.23;;;;;;;;;;5049794;28;20198;-61
2023/01/24 12:01:20;;;;;;;14.73;10.20;;;;;;;;;;5049593;28;20048;-60
2023/01/24 12:04:05;;;;;;;12.97;9.97;;;;;;;;;;5050951;28;20053;-61
2023/01/24 12:06:36;;;;;;;12.47;9.60;;;;;;;;;;5050240;28;20529;-61
2023/01/24 12:09:22;;;;;;;13.50;9.07;;;;;;;;;;5049129;28;20114;-61
2023/01/24 12:12:07;;;;;;;12.80;9.17;;;;;;;;;;5050406;28;20420;-61
2023/01/24 12:14:52;;;;;;;12.70;9.23;;;;;;;;;;5050138;28;20107;-61
2023/01/24 12:17:18;;;;;;;15.17;9.77;;;;;;;;;;5050399;28;20052;-62
2023/01/24 12:20:02;;;;;;;11.87;9.37;;;;;;;;;;5049944;28;20411;-61
2023/01/24 12:22:29;;;;;;;12.60;9.43;;;;;;;;;;5048967;28;20049;-61
2023/01/24 12:24:58;;;;;;;12.83;9.53;;;;;;;;;;5049548;28;20056;-61
2023/01/24 12:27:26;;;;;;;13.13;9.13;;;;;;;;;;5050056;28;20127;-61
2023/01/24 12:30:07;;;;;;;12.50;8.70;;;;;;;;;;5048678;28;20107;-61
2023/01/24 12:32:52;;;;;;;13.87;9.70;;;;;;;;;;5049834;28;20503;-62
2023/01/24 12:35:28;;;;;;;14.53;9.03;;;;;;;;;;5049458;28;20045;-61
2023/01/24 12:38:12;;;;;;;11.93;9.33;;;;;;;;;;5049453;28;20519;-61
2023/01/24 12:40:44;;;;;;;12.00;9.07;;;;;;;;;;5049882;28;20123;-61
2023/01/24 12:43:10;;;;;;;13.03;9.13;;;;;;;;;;5049417;28;20044;-61
2023/01/24 12:45:44;;;;;;;12.43;9.07;;;;;;;;;;5048545;28;20084;-61
2023/01/24 12:48:09;;;;;;;;;;;;;;;;;;5049952;28;20053;-61
2023/01/24 12:50:48;;;;;;;10.93;8.57;;;;;;;;;;5049577;28;19970;-61
2023/01/24 12:53:19;;;;;;;13.83;9.13;;;;;;;;;;5048801;28;20049;-61
2023/01/24 12:56:05;;;;;;;12.17;8.80;;;;;;;;;;5048238;28;20049;-61
2023/01/24 12:58:34;;;;;;;12.50;9.87;;;;;;;;;;5049027;28;20450;-61
2023/01/24 13:01:19;;;;;;;12.00;8.23;;;;;;;;;;5048711;28;20947;-61
2023/01/24 13:03:48;;;;;;;12.93;9.37;;;;;;;;;;5049253;28;20045;-61
2023/01/24 13:06:26;;;;;;;13.57;8.67;;;;;;;;;;5047943;28;20048;-61
2023/01/24 13:09:05;;;;;;;12.77;9.10;;;;;;;;;;5049083;28;20131;-61
2023/01/24 13:11:33;;;;;;;13.37;9.20;;;;;;;;;;5048974;28;20147;-61
2023/01/24 13:14:05;;;;;;;11.53;8.80;;;;;;;;;;5047691;28;20045;-61
2023/01/24 13:16:34;;;;;;;15.00;9.20;;;;;;;;;;5048978;28;20041;-61
2023/01/24 13:19:00;;;;;;;11.17;8.50;;;;;;;;;;5048294;28;20068;-62
2023/01/24 13:21:32;;;;;;;10.80;8.53;;;;;;;;;;5049065;28;20045;-61
2023/01/24 13:24:17;;;;;;;13.13;9.60;;;;;;;;;;5049053;28;20064;-61
2023/01/24 13:26:43;;;;;;;14.23;8.90;;;;;;;;;;5048194;28;20045;-61
2023/01/24 13:29:12;;;;;;;13.33;9.23;;;;;;;;;;5048723;28;20393;-61
2023/01/24 13:31:48;;;;;;;11.80;9.37;;;;;;;;;;5047361;28;20806;-61
2023/01/24 13:34:15;;;;;;;12.03;8.90;;;;;;;;;;5048362;28;20464;-62
2023/01/24 13:36:47;;;;;;;15.07;10.07;;;;;;;;;;5048531;28;20529;-61
2023/01/24 13:39:28;;;;;;;11.93;8.37;;;;;;;;;;5048405;28;20041;-61
2023/01/24 13:42:01;;;;;;;11.73;8.83;;;;;;;;;;5047883;28;20046;-61
2023/01/24 13:44:29;;;;;;;12.20;9.70;;;;;;;;;;5048466;28;20041;-61
2023/01/24 13:47:03;;;;;;;13.20;8.93;;;;;;;;;;5048276;28;20045;-61
2023/01/24 13:49:29;;;;;;;12.87;8.63;;;;;;;;;;5046616;28;20049;-62
2023/01/24 13:51:58;;;;;;;12.40;8.80;;;;;;;;;;5048328;28;20048;-61
2023/01/24 13:54:39;;;;;;;13.87;8.97;;;;;;;;;;5048605;28;20056;-61
2023/01/24 13:57:24;;;;;;;14.03;9.00;;;;;;;;;;5048159;28;20076;-61
2023/01/24 14:00:09;;;;;;;15.20;10.17;;;;;;;;;;5048403;28;20079;-61
2023/01/24 14:02:50;;;;;;;14.17;9.77;;;;;;;;;;5047612;28;20087;-61
2023/01/24 14:05:28;;;;;;;14.00;10.10;;;;;;;;;;5048316;28;20049;-61
2023/01/24 14:08:14;;;;;;;12.93;9.03;;;;;;;;;;5048177;28;20479;-61
2023/01/24 14:10:45;;;;;;;12.83;9.60;;;;;;;;;;5036659;28;20507;-61
2023/01/24 14:13:30;;;;;;;13.63;9.90;;;;;;;;;;5047871;28;20048;-61
2023/01/24 14:15:56;;;;;;;10.97;8.07;;;;;;;;;;5048328;28;20049;-61
2023/01/24 14:18:41;;;;;;;12.03;8.50;;;;;;;;;;5049110;28;20091;-61
2023/01/24 14:21:17;;;;;;;11.57;8.60;;;;;;;;;;5053311;28;20056;-61
2023/01/24 14:23:45;;;;;;;15.23;9.23;;;;;;;;;;5057355;28;20040;-61
2023/01/24 14:26:15;;;;;;;12.63;9.00;;;;;;;;;;5062685;28;20106;-61
2023/01/24 14:28:45;;;;;;;16.53;9.10;;;;;;;;;;5066755;28;20109;-61
2023/01/24 14:31:34;;;;;;;13.43;8.93;;;;;;;;;;5054368;28;20048;-61
2023/01/24 14:34:12;;;;;;;14.97;9.33;;;;;;;;;;5063019;28;20388;-61
2023/01/24 14:36:39;;;;;;;14.73;8.90;;;;;;;;;;5053698;28;20048;-61
2023/01/24 14:39:11;;;;;;;13.93;10.33;;;;;;;;;;5066640;28;20083;-61
2023/01/24 14:41:39;;;;;;;14.47;10.07;;;;;;;;;;5067060;28;20320;-61
2023/01/24 14:44:15;;;;;;;14.77;9.70;;;;;;;;;;5067958;28;20040;-61
2023/01/24 14:46:41;;;;;;;16.37;10.50;;;;;;;;;;5052609;28;20448;-61
2023/01/24 14:49:14;;;;;;;13.37;9.67;;;;;;;;;;5047580;28;20532;-61
2023/01/24 14:51:45;;;;;;;13.18;9.10;;;;;;;;;;5057511;28;20083;-61
2023/01/24 14:54:20;;;;;;;16.13;9.97;;;;;;;;;;5068247;28;20460;-61
2023/01/24 14:56:46;;;;;;;15.17;10.27;;;;;;;;;;5068171;28;20040;-61
2023/01/24 14:59:13;;;;;;;13.20;9.57;;;;;;;;;;5067889;28;20323;-61
2023/01/24 15:01:39;;;;;;;14.03;9.20;;;;;;;;;;5068123;28;20056;-61
2023/01/24 15:04:05;;;;;;;13.67;9.17;;;;;;;;;;5061106;28;20041;-61
2023/01/24 15:06:35;;;;;;;14.47;9.97;;;;;;;;;;5058441;28;20037;-61
2023/01/24 15:09:01;;;;;;;14.23;9.97;;;;;;;;;;5067896;28;20051;-61